Airfield :
LOGIN :

Register | Disclaimer

   EN    FR    IT 

 










Legend :    VFR   Marginal VFR   IFR   Intensive IFR   Very Intensive IFR
Visi :
Ceiling :
>= 8 km
>= 3000ft
5 to 8 km
1000 to 3000 ft
1500m to 5 km
500 to 1000 ft
800 to 1500m
200 to 500 ft
< 800m
< 200 ft
Symbols :   Thunderstorms  Fog  Heavy snow  Heavy precipitations  Wind > 20 kt
SIGMETs :     Misc.  Thunderstorms  Icing  Turbulence  Mountain Waves  Volcanic Ashes






- Airport Elevation : 404 ft
- IATA code : WRO


EPWR - Wroclaw

CURRENT METAR :
  • 250530Z 29012KT 260V320 9999 FEW012 11/09 Q1024

EXPIRED METARs :
  • 250500Z 29012KT 9999 FEW012 10/09 Q1024
  • 250430Z 29013KT 9999 FEW011 BKN015 10/09 Q1024
  • 250400Z 29012KT 9999 FEW011 SCT015 BKN035 10/09 Q1024
  • 250330Z 29012KT 9999 FEW013 SCT041 BKN047 10/09 Q1024
  • 250300Z 29011KT 9999 -SHRA FEW011CB SCT029 BKN042 10/09 Q1024

TAF TAF EPWR
Valid from the 25 at 06:00 until the 26 at 06:00 UTC


250530Z 2506/2606 30013KT 9999 BKN020
TEMPO 2506/2522 30015G25KT SHRA BKN012 BKN020CB
PROB30
TEMPO 2512/2518 4000 TSRA BKN007 BKN014CB
BECMG 2523/2601 30003KT 4000 BR BKN007



MET'MAP, your aeronautical weather chart ! - Copyright ORBIFLY December 2007 - Disclaimer

ORBIFLY MET'MAP TEAM :

Programming & Development : Alexandra Zaïnal
Concept & original design : Baudouin d'Aumeries
Assistance for programming : Marc-Olivier Méhu
Technical & hardware support : Manuel Goepfert

Contact : metmap@orbifly.com




SOURCES & CREDITS :

   NOAA